createdAt,value
2022-10-04T00:01:22.141Z,97910.50
2022-10-04T00:03:49.788Z,97912.41
2022-10-04T00:06:20.125Z,97914.06
2022-10-04T00:08:49.507Z,97912.28
2022-10-04T00:11:18.006Z,97904.44
2022-10-04T00:13:51.902Z,97902.66
2022-10-04T00:16:19.767Z,97891.09
2022-10-04T00:18:46.280Z,97885.88
2022-10-04T00:21:12.904Z,97886.97
2022-10-04T00:23:39.356Z,97875.44
2022-10-04T00:26:24.025Z,97874.34
2022-10-04T00:28:50.889Z,97866.81
2022-10-04T00:31:18.671Z,97861.75
2022-10-04T00:33:48.975Z,97862.31
2022-10-04T00:36:24.695Z,97864.69
2022-10-04T00:39:09.500Z,97865.66
2022-10-04T00:41:42.067Z,97869.03
2022-10-04T00:44:10.428Z,97875.75
2022-10-04T00:46:36.963Z,97872.81
2022-10-04T00:49:03.771Z,97870.06
2022-10-04T00:51:48.859Z,97868.03
2022-10-04T00:54:23.164Z,97872.44
2022-10-04T00:56:53.896Z,97873.84
2022-10-04T00:59:20.331Z,97878.22
2022-10-04T01:01:48.399Z,97884.78
2022-10-04T01:04:23.322Z,97878.00
2022-10-04T01:06:49.720Z,97867.88
2022-10-04T01:09:16.817Z,97872.09
2022-10-04T01:11:44.924Z,97867.81
2022-10-04T01:14:15.062Z,97868.16
2022-10-04T01:16:41.472Z,97867.34
2022-10-04T01:19:23.777Z,97867.56
2022-10-04T01:22:05.325Z,97850.13
2022-10-04T01:24:38.292Z,97845.78
2022-10-04T01:27:05.395Z,97845.22
2022-10-04T01:29:31.851Z,97837.56
2022-10-04T01:31:59.081Z,97840.63
2022-10-04T01:34:29.000Z,97839.09
2022-10-04T01:36:56.051Z,97834.19
2022-10-04T01:39:22.935Z,97836.34
2022-10-04T01:41:58.665Z,97828.66
2022-10-04T01:44:28.295Z,97824.09
2022-10-04T01:46:55.550Z,97822.59
2022-10-04T01:49:23.244Z,97822.16
2022-10-04T01:51:50.008Z,97810.19
2022-10-04T01:54:17.770Z,97803.31
2022-10-04T01:56:56.083Z,97802.44
2022-10-04T01:59:27.652Z,97798.19
2022-10-04T02:01:56.056Z,97795.97
2022-10-04T02:04:23.906Z,97793.22
2022-10-04T02:06:53.074Z,97786.06
2022-10-04T02:09:20.180Z,97791.03
2022-10-04T02:11:47.489Z,97785.41
2022-10-04T02:14:15.925Z,97783.63
2022-10-04T02:16:43.301Z,97798.44
2022-10-04T02:19:10.046Z,97800.38
2022-10-04T02:21:36.638Z,97798.09
2022-10-04T02:24:03.091Z,97797.16
2022-10-04T02:26:29.532Z,97791.22
2022-10-04T02:28:55.954Z,97789.31
2022-10-04T02:31:41.573Z,97778.72
2022-10-04T02:34:08.299Z,97773.13
2022-10-04T02:36:34.893Z,97777.81
2022-10-04T02:39:15.514Z,97776.16
2022-10-04T02:41:43.850Z,97766.56
2022-10-04T02:44:13.557Z,97772.34
2022-10-04T02:47:15.597Z,97767.53
2022-10-04T02:49:44.856Z,97755.31
2022-10-04T02:52:12.849Z,97757.66
2022-10-04T02:54:45.264Z,97759.16
2022-10-04T02:57:14.207Z,97773.75
2022-10-04T02:59:40.578Z,97767.72
2022-10-04T03:02:28.681Z,97771.03
2022-10-04T03:04:56.847Z,97762.75
2022-10-04T03:07:23.381Z,97763.88
2022-10-04T03:09:49.847Z,97760.25
2022-10-04T03:12:16.386Z,97760.25
2022-10-04T03:14:42.908Z,97759.56
2022-10-04T03:17:09.443Z,97758.06
2022-10-04T03:19:35.896Z,97755.31
2022-10-04T03:22:03.242Z,97756.13
2022-10-04T03:24:33.852Z,97758.34
2022-10-04T03:27:00.743Z,97750.38
2022-10-04T03:29:28.331Z,97741.00
2022-10-04T03:31:58.213Z,97735.19
2022-10-04T03:34:24.670Z,97728.75
2022-10-04T03:36:51.521Z,97729.72
2022-10-04T03:39:33.558Z,97726.28
2022-10-04T03:42:04.491Z,97728.06
2022-10-04T03:44:31.936Z,97736.59
2022-10-04T03:46:58.744Z,97737.69
2022-10-04T03:49:32.518Z,97744.03
2022-10-04T03:51:59.078Z,97734.66
2022-10-04T03:54:27.925Z,97739.63
2022-10-04T03:56:54.898Z,97741.56
2022-10-04T03:59:21.419Z,97734.25
2022-10-04T04:01:50.971Z,97728.31
2022-10-04T04:04:43.993Z,97731.22
2022-10-04T04:07:20.632Z,97726.94
2022-10-04T04:09:50.943Z,97725.97
2022-10-04T04:12:18.736Z,97719.91
2022-10-04T04:14:45.335Z,97727.91
2022-10-04T04:17:27.340Z,97730.38
2022-10-04T04:19:54.302Z,97729.69
2022-10-04T04:22:21.096Z,97730.81
2022-10-04T04:24:47.506Z,97733.28
2022-10-04T04:27:14.446Z,97739.34
2022-10-04T04:29:53.093Z,97742.09
2022-10-04T04:32:24.252Z,97740.16
2022-10-04T04:34:52.775Z,97736.97
2022-10-04T04:37:19.319Z,97727.91
2022-10-04T04:39:49.264Z,97729.41
2022-10-04T04:42:25.215Z,97730.53
2022-10-04T04:44:55.855Z,97728.84
2022-10-04T04:47:22.211Z,97728.84
2022-10-04T04:49:48.630Z,97712.19
2022-10-04T04:52:16.827Z,97713.72
2022-10-04T04:54:43.932Z,97710.41
2022-10-04T04:57:10.618Z,97704.09
2022-10-04T04:59:37.205Z,97699.53
2022-10-04T05:02:03.749Z,97700.94
2022-10-04T05:04:31.466Z,97700.09
2022-10-04T05:07:05.366Z,97706.44
2022-10-04T05:09:35.566Z,97706.56
2022-10-04T05:12:11.381Z,97705.06
2022-10-04T05:14:38.252Z,97699.53
2022-10-04T05:17:04.661Z,97691.28
2022-10-04T05:19:31.817Z,97690.75
2022-10-04T05:21:59.276Z,97697.06
2022-10-04T05:24:25.663Z,97708.75
2022-10-04T05:26:56.560Z,97701.31
2022-10-04T05:29:26.949Z,97697.44
2022-10-04T05:31:56.052Z,97692.63
2022-10-04T05:34:27.196Z,97698.84
2022-10-04T05:37:12.338Z,97691.38
2022-10-04T05:40:02.021Z,97699.94
2022-10-04T05:42:40.361Z,97694.53
2022-10-04T05:45:20.780Z,97685.59
2022-10-04T05:47:53.971Z,97684.22
2022-10-04T05:50:30.210Z,97681.06
2022-10-04T05:53:07.655Z,97670.59
2022-10-04T05:55:37.646Z,97669.34
2022-10-04T05:58:10.344Z,97673.63
2022-10-04T06:00:45.938Z,97661.66
2022-10-04T06:03:15.317Z,97667.03
2022-10-04T06:05:49.263Z,97664.16
2022-10-04T06:08:18.719Z,97662.13
2022-10-04T06:11:06.739Z,97651.75
2022-10-04T06:13:52.636Z,97659.75
2022-10-04T06:16:25.125Z,97660.28
2022-10-04T06:19:10.379Z,97670.63
2022-10-04T06:21:55.587Z,97681.19
2022-10-04T06:24:27.053Z,97675.50
2022-10-04T06:26:59.395Z,97679.47
2022-10-04T06:29:27.335Z,97686.94
2022-10-04T06:31:57.347Z,97703.63
2022-10-04T06:34:29.867Z,97705.97
2022-10-04T06:37:15.696Z,97702.22
2022-10-04T06:39:52.685Z,97703.72
2022-10-04T06:42:39.193Z,97699.53
2022-10-04T06:45:18.089Z,97698.19
2022-10-04T06:47:44.453Z,97698.81
2022-10-04T06:50:17.256Z,97693.75
2022-10-04T06:52:47.301Z,97699.47
2022-10-04T06:55:26.100Z,97691.94
2022-10-04T06:57:58.392Z,97692.38
2022-10-04T07:00:26.225Z,97689.69
2022-10-04T07:02:53.940Z,97693.34
2022-10-04T07:05:34.316Z,97687.81
2022-10-04T07:08:10.815Z,97685.25
2022-10-04T07:10:45.509Z,97687.03
2022-10-04T07:13:14.119Z,97692.44
2022-10-04T07:15:55.927Z,97683.75
2022-10-04T07:18:27.069Z,97687.00
2022-10-04T07:21:04.573Z,97681.31
2022-10-04T07:23:36.368Z,97685.97
2022-10-04T07:26:04.466Z,97686.31
2022-10-04T07:28:50.525Z,97683.56
2022-10-04T07:31:16.987Z,97682.47
2022-10-04T07:33:44.534Z,97681.16
2022-10-04T07:36:11.892Z,97698.94
2022-10-04T07:38:39.486Z,97690.06
2022-10-04T07:41:08.819Z,97692.56
2022-10-04T07:43:38.515Z,97697.00
2022-10-04T07:46:06.515Z,97695.69
2022-10-04T07:48:33.030Z,97699.31
2022-10-04T07:51:09.900Z,97698.31
2022-10-04T07:53:56.588Z,97703.56
2022-10-04T07:56:22.993Z,97690.63
2022-10-04T07:59:00.781Z,97691.88
2022-10-04T08:01:39.626Z,97696.75
2022-10-04T08:04:06.089Z,97697.44
2022-10-04T08:06:36.586Z,97695.66
2022-10-04T08:09:05.994Z,97691.59
2022-10-04T08:11:44.887Z,97691.47
2022-10-04T08:14:24.956Z,97682.53
2022-10-04T08:17:17.806Z,97692.38
2022-10-04T08:20:03.086Z,97690.84
2022-10-04T08:22:52.681Z,97697.41
2022-10-04T08:25:29.604Z,97688.91
2022-10-04T08:28:34.933Z,97691.66
2022-10-04T08:31:21.692Z,97687.03
2022-10-04T08:33:59.584Z,97694.13
2022-10-04T08:36:45.365Z,97687.75
2022-10-04T08:39:30.929Z,97690.94
2022-10-04T08:41:57.318Z,97690.56
2022-10-04T08:44:43.123Z,97691.19
2022-10-04T08:47:24.538Z,97695.13
2022-10-04T08:50:03.960Z,97694.56
2022-10-04T08:52:49.443Z,97692.72
2022-10-04T08:55:35.207Z,97686.19
2022-10-04T08:58:23.940Z,97695.47
2022-10-04T09:00:56.886Z,97692.78
2022-10-04T09:03:42.088Z,97696.28
2022-10-04T09:06:27.419Z,97701.94
2022-10-04T09:09:12.589Z,97699.94
2022-10-04T09:12:05.407Z,97690.59
2022-10-04T09:14:40.873Z,97697.13
2022-10-04T09:17:44.572Z,97705.56
2022-10-04T09:20:37.226Z,97697.63
2022-10-04T09:23:05.464Z,97697.88
2022-10-04T09:25:32.750Z,97693.13
2022-10-04T09:28:02.271Z,97692.84
2022-10-04T09:30:34.680Z,97689.19
2022-10-04T09:33:21.338Z,97682.59
2022-10-04T09:35:47.741Z,97670.13
2022-10-04T09:38:20.347Z,97667.16
2022-10-04T09:41:07.079Z,97675.66
2022-10-04T09:43:52.060Z,97671.50
2022-10-04T09:46:55.694Z,97669.47
2022-10-04T09:49:27.575Z,97676.13
2022-10-04T09:52:14.130Z,97674.91
2022-10-04T09:54:58.739Z,97673.25
2022-10-04T09:57:45.782Z,97673.09
2022-10-04T10:00:26.425Z,97673.69
2022-10-04T10:03:15.778Z,97670.09
2022-10-04T10:05:49.734Z,97674.06
2022-10-04T10:08:26.129Z,97663.75
2022-10-04T10:11:13.291Z,97676.81
2022-10-04T10:13:58.247Z,97664.56
2022-10-04T10:16:44.024Z,97655.69
2022-10-04T10:19:28.334Z,97663.53
2022-10-04T10:22:13.752Z,97654.81
2022-10-04T10:24:47.812Z,97652.31
2022-10-04T10:27:32.985Z,97648.72
2022-10-04T10:30:18.517Z,97649.94
2022-10-04T10:32:44.892Z,97645.88
2022-10-04T10:35:16.576Z,97646.59
2022-10-04T10:38:04.646Z,97645.59
2022-10-04T10:40:41.710Z,97628.69
2022-10-04T10:43:18.371Z,97634.91
2022-10-04T10:45:47.553Z,97635.59
2022-10-04T10:48:15.122Z,97632.97
2022-10-04T10:50:59.847Z,97633.56
2022-10-04T10:53:46.150Z,97637.91
2022-10-04T10:56:31.461Z,97633.31
2022-10-04T10:59:05.491Z,97625.25
2022-10-04T11:01:38.655Z,97629.19
2022-10-04T11:04:28.259Z,97625.22
2022-10-04T11:06:54.639Z,97622.59
2022-10-04T11:09:40.838Z,97624.75
2022-10-04T11:12:18.312Z,97622.59
2022-10-04T11:15:03.767Z,97610.78
2022-10-04T11:17:39.887Z,97617.59
2022-10-04T11:20:06.301Z,97612.22
2022-10-04T11:22:51.576Z,97607.38
2022-10-04T11:25:25.351Z,97609.81
2022-10-04T11:27:58.973Z,97592.78
2022-10-04T11:30:26.511Z,97594.53
2022-10-04T11:33:11.874Z,97591.84
2022-10-04T11:35:57.965Z,97583.03
2022-10-04T11:38:25.188Z,97592.25
2022-10-04T11:41:07.453Z,97575.63
2022-10-04T11:43:50.259Z,97589.91
2022-10-04T11:46:33.766Z,97588.31
2022-10-04T11:49:15.696Z,97585.50
2022-10-04T11:51:51.371Z,97578.53
2022-10-04T11:54:30.241Z,97580.28
2022-10-04T11:57:11.031Z,97586.16
2022-10-04T11:59:38.904Z,97579.09
2022-10-04T12:02:24.221Z,97579.50
2022-10-04T12:05:12.093Z,97576.97
2022-10-04T12:07:42.035Z,97572.59
2022-10-04T12:10:17.696Z,97572.75
2022-10-04T12:13:04.706Z,97567.72
2022-10-04T12:15:32.767Z,97564.81
2022-10-04T12:18:08.142Z,97575.19
2022-10-04T12:20:53.272Z,97577.66
2022-10-04T12:23:34.972Z,97562.88
2022-10-04T12:26:17.098Z,97560.03
2022-10-04T12:29:05.907Z,97544.72
2022-10-04T12:31:33.492Z,97546.75
2022-10-04T12:34:15.542Z,97542.94
2022-10-04T12:36:57.431Z,97538.66
2022-10-04T12:39:47.265Z,97531.75
2022-10-04T12:42:32.872Z,97530.53
2022-10-04T12:45:03.788Z,97533.53
2022-10-04T12:47:30.428Z,97534.94
2022-10-04T12:49:57.036Z,97544.91
2022-10-04T12:52:25.389Z,97542.97
2022-10-04T12:55:00.886Z,97541.84
2022-10-04T12:57:40.526Z,97522.25
2022-10-04T13:00:16.241Z,97512.81
2022-10-04T13:03:02.088Z,97508.19
2022-10-04T13:05:42.395Z,97523.78
2022-10-04T13:08:08.959Z,97510.59
2022-10-04T13:10:44.672Z,97517.13
2022-10-04T13:13:30.023Z,97510.38
2022-10-04T13:18:49.315Z,97498.00
2022-10-04T13:21:39.029Z,97508.69
2022-10-04T13:24:15.162Z,97500.91
2022-10-04T13:26:43.016Z,97500.63
2022-10-04T13:29:19.763Z,97499.25
2022-10-04T13:31:46.466Z,97494.13
2022-10-04T13:34:20.326Z,97491.22
2022-10-04T13:37:09.584Z,97495.84
2022-10-04T13:39:41.292Z,97488.91
2022-10-04T13:42:12.242Z,97483.19
2022-10-04T13:45:00.876Z,97494.25
2022-10-04T13:47:35.046Z,97489.34
2022-10-04T13:50:04.631Z,97496.34
2022-10-04T13:53:01.987Z,97492.00
2022-10-04T13:55:46.923Z,97495.75
2022-10-04T13:58:16.075Z,97504.84
2022-10-04T14:00:58.306Z,97490.84
2022-10-04T14:03:43.963Z,97490.75
2022-10-04T14:06:33.715Z,97486.78
2022-10-04T14:09:03.895Z,97483.50
2022-10-04T14:11:42.904Z,97481.28
2022-10-04T14:14:17.433Z,97485.13
2022-10-04T14:16:47.004Z,97487.31
2022-10-04T14:19:32.164Z,97487.69
2022-10-04T14:22:01.672Z,97477.47
2022-10-04T14:24:46.963Z,97480.38
2022-10-04T14:27:26.967Z,97473.47
2022-10-04T14:29:53.365Z,97471.69
2022-10-04T14:32:20.454Z,97465.28
2022-10-04T14:34:53.816Z,97467.84
2022-10-04T14:37:43.647Z,97461.16
2022-10-04T14:40:10.067Z,97469.34
2022-10-04T14:42:36.493Z,97464.03
2022-10-04T14:45:04.392Z,97466.78
2022-10-04T14:47:49.742Z,97472.81
2022-10-04T14:50:19.510Z,97463.63
2022-10-04T14:53:01.275Z,97470.50
2022-10-04T14:55:39.903Z,97475.16
2022-10-04T14:58:21.569Z,97457.97
2022-10-04T15:01:07.050Z,97459.69
2022-10-04T15:03:50.571Z,97472.47
2022-10-04T15:06:22.073Z,97468.63
2022-10-04T15:09:01.107Z,97465.13
2022-10-04T15:11:41.274Z,97465.22
2022-10-04T15:14:27.964Z,97462.38
2022-10-04T15:16:55.519Z,97450.09
2022-10-04T15:19:21.918Z,97447.59
2022-10-04T15:22:03.614Z,97457.28
2022-10-04T15:24:41.742Z,97454.09
2022-10-04T15:27:09.691Z,97448.63
2022-10-04T15:30:05.781Z,97448.84
2022-10-04T15:32:35.575Z,97445.56
2022-10-04T15:35:12.025Z,97445.78
2022-10-04T15:37:50.656Z,97441.16
2022-10-04T15:40:23.208Z,97439.00
2022-10-04T15:43:01.560Z,97452.00
2022-10-04T15:45:34.094Z,97449.72
2022-10-04T15:48:10.451Z,97450.44
2022-10-04T15:50:39.655Z,97443.09
2022-10-04T15:53:19.766Z,97438.56
2022-10-04T15:55:58.890Z,97440.25
2022-10-04T15:58:25.591Z,97440.50
2022-10-04T16:01:01.788Z,97448.06
2022-10-04T16:03:34.542Z,97444.84
2022-10-04T16:06:05.574Z,97449.78
2022-10-04T16:08:35.068Z,97443.88
2022-10-04T16:11:08.084Z,97448.78
2022-10-04T16:13:56.804Z,97453.94
2022-10-04T16:16:29.308Z,97450.50
2022-10-04T16:18:55.765Z,97457.69
2022-10-04T16:21:48.441Z,97458.53
2022-10-04T16:24:17.920Z,97456.09
2022-10-04T16:26:44.677Z,97457.13
2022-10-04T16:29:34.563Z,97460.19
2022-10-04T16:32:05.179Z,97458.94
2022-10-04T16:34:45.414Z,97464.66
2022-10-04T16:37:20.707Z,97469.97
2022-10-04T16:39:59.203Z,97473.44
2022-10-04T16:42:34.738Z,97473.44
2022-10-04T16:45:07.327Z,97470.78
2022-10-04T16:47:39.568Z,97478.94
2022-10-04T16:50:09.505Z,97469.97
2022-10-04T16:52:38.532Z,97469.56
2022-10-04T16:55:22.541Z,97459.09
2022-10-04T16:58:08.938Z,97464.38
2022-10-04T17:00:36.849Z,97464.16
2022-10-04T17:03:24.089Z,97464.97
2022-10-04T17:05:56.726Z,97472.53
2022-10-04T17:08:24.108Z,97478.84
2022-10-04T17:11:14.549Z,97479.56
2022-10-04T17:13:50.825Z,97476.63
2022-10-04T17:16:23.644Z,97473.28
2022-10-04T17:19:05.535Z,97475.94
2022-10-04T17:21:31.981Z,97478.91
2022-10-04T17:24:02.517Z,97486.16
2022-10-04T17:26:28.951Z,97495.25
2022-10-04T17:28:56.631Z,97488.50
2022-10-04T17:31:29.267Z,97492.91
2022-10-04T17:33:58.784Z,97489.53
2022-10-04T17:36:26.031Z,97494.69
2022-10-04T17:39:01.778Z,97498.03
2022-10-04T17:41:40.118Z,97494.47
2022-10-04T17:44:13.363Z,97493.50
2022-10-04T17:46:52.194Z,97488.47
2022-10-04T17:50:03.918Z,97490.09
2022-10-04T17:52:53.041Z,97479.41
2022-10-04T17:55:24.493Z,97484.59
2022-10-04T17:57:52.704Z,97478.25
2022-10-04T18:00:23.854Z,97480.00
2022-10-04T18:03:09.788Z,97483.78
2022-10-04T18:05:42.406Z,97479.41
2022-10-04T18:08:27.607Z,97485.88
2022-10-04T18:11:20.521Z,97489.75
2022-10-04T18:13:48.534Z,97494.38
2022-10-04T18:16:25.955Z,97493.56
2022-10-04T18:18:52.459Z,97499.75
2022-10-04T18:21:20.116Z,97499.22
2022-10-04T18:24:10.100Z,97497.59
2022-10-04T18:26:37.108Z,97498.56
2022-10-04T18:29:07.324Z,97503.69
2022-10-04T18:31:37.954Z,97502.63
2022-10-04T18:34:10.582Z,97502.41
2022-10-04T18:36:55.976Z,97493.63
2022-10-04T18:39:22.962Z,97496.94
2022-10-04T18:42:23.525Z,97496.19
2022-10-04T18:44:59.988Z,97495.41
2022-10-04T18:47:33.663Z,97484.03
2022-10-04T18:50:02.803Z,97485.16
2022-10-04T18:52:58.844Z,97488.06
2022-10-04T18:55:28.297Z,97492.66
2022-10-04T18:58:20.035Z,97495.84
2022-10-04T19:01:07.213Z,97502.41
2022-10-04T19:03:36.636Z,97511.69
2022-10-04T19:06:06.201Z,97510.53
2022-10-04T19:09:08.041Z,97513.03
2022-10-04T19:11:37.090Z,97520.63
2022-10-04T19:14:08.144Z,97515.38
2022-10-04T19:16:50.518Z,97518.59
2022-10-04T19:19:27.558Z,97522.22
2022-10-04T19:21:54.950Z,97515.56
2022-10-04T19:24:40.308Z,97516.38
2022-10-04T19:27:26.531Z,97511.91
2022-10-04T19:30:11.727Z,97515.66
2022-10-04T19:32:47.401Z,97513.38
2022-10-04T19:35:20.056Z,97505.00
2022-10-04T19:38:05.376Z,97515.19
2022-10-04T19:40:52.665Z,97513.00
2022-10-04T19:43:37.275Z,97521.56
2022-10-04T19:46:03.700Z,97523.31
2022-10-04T19:48:33.790Z,97531.88
2022-10-04T19:51:04.997Z,97524.13
2022-10-04T19:53:35.172Z,97518.78
2022-10-04T19:56:01.628Z,97514.56
2022-10-04T19:58:45.007Z,97503.34
2022-10-04T20:01:17.692Z,97500.53
2022-10-04T20:03:44.212Z,97498.22
2022-10-04T20:06:10.780Z,97503.50
2022-10-04T20:08:49.471Z,97497.75
2022-10-04T20:11:23.328Z,97491.59
2022-10-04T20:14:21.500Z,97505.38
2022-10-04T20:16:48.962Z,97491.78
2022-10-04T20:19:18.177Z,97491.41
2022-10-04T20:21:44.793Z,97486.56
2022-10-04T20:24:30.374Z,97482.22
2022-10-04T20:27:01.274Z,97477.03
2022-10-04T20:29:36.829Z,97481.03
2022-10-04T20:32:22.657Z,97481.84
2022-10-04T20:34:49.375Z,97483.19
2022-10-04T20:37:21.861Z,97486.84
2022-10-04T20:39:49.128Z,97498.16
2022-10-04T20:42:29.813Z,97495.97
2022-10-04T20:44:56.327Z,97503.16
2022-10-04T20:47:32.076Z,97509.63
2022-10-04T20:50:01.773Z,97507.25
2022-10-04T20:52:31.766Z,97512.16
2022-10-04T20:55:00.185Z,97509.69
2022-10-04T20:57:26.588Z,97513.09
2022-10-04T20:59:56.457Z,97502.34
2022-10-04T21:02:23.985Z,97501.09
2022-10-04T21:04:53.335Z,97497.72
2022-10-04T21:07:21.164Z,97495.63
2022-10-04T21:09:47.862Z,97486.44
2022-10-04T21:12:26.479Z,97479.25
2022-10-04T21:15:03.273Z,97484.66
2022-10-04T21:17:29.686Z,97486.75
2022-10-04T21:19:56.262Z,97488.19
2022-10-04T21:22:25.896Z,97498.75
2022-10-04T21:24:56.792Z,97494.66
2022-10-04T21:27:29.253Z,97495.84
2022-10-04T21:29:56.530Z,97498.41
2022-10-04T21:32:23.506Z,97498.00
2022-10-04T21:34:54.374Z,97492.13
2022-10-04T21:37:21.260Z,97498.44
2022-10-04T21:39:47.801Z,97491.72
2022-10-04T21:42:14.229Z,97485.53
2022-10-04T21:44:40.677Z,97478.16
2022-10-04T21:47:07.109Z,97489.56
2022-10-04T21:49:33.486Z,97489.72
2022-10-04T21:51:59.891Z,97477.94
2022-10-04T21:54:26.386Z,97479.16
2022-10-04T21:56:54.002Z,97486.47
2022-10-04T21:59:20.775Z,97478.94
2022-10-04T22:01:47.366Z,97480.75
2022-10-04T22:04:13.773Z,97467.97
2022-10-04T22:06:40.516Z,97465.69
2022-10-04T22:09:07.108Z,97474.31
2022-10-04T22:11:33.531Z,97479.66
2022-10-04T22:14:00.195Z,97478.31
2022-10-04T22:16:26.742Z,97470.78
2022-10-04T22:18:53.201Z,97474.66
2022-10-04T22:21:19.637Z,97477.31
2022-10-04T22:23:46.059Z,97481.47
2022-10-04T22:26:13.387Z,97484.63
2022-10-04T22:28:53.154Z,97482.81
2022-10-04T22:31:20.547Z,97480.66
2022-10-04T22:33:47.749Z,97482.00
2022-10-04T22:36:15.528Z,97485.00
2022-10-04T22:38:42.565Z,97485.13
2022-10-04T22:41:09.845Z,97484.75
2022-10-04T22:43:36.370Z,97481.56
2022-10-04T22:46:02.891Z,97477.59
2022-10-04T22:48:29.329Z,97480.84
2022-10-04T22:50:55.816Z,97488.13
2022-10-04T22:53:22.690Z,97492.88
2022-10-04T22:55:49.637Z,97490.38
2022-10-04T22:58:16.272Z,97478.56
2022-10-04T23:00:43.346Z,97468.66
2022-10-04T23:03:31.399Z,97451.66
2022-10-04T23:05:58.410Z,97447.09
2022-10-04T23:08:25.072Z,97457.06
2022-10-04T23:10:55.600Z,97453.91
2022-10-04T23:13:25.916Z,97449.44
2022-10-04T23:15:52.572Z,97444.00
2022-10-04T23:18:19.226Z,97440.16
2022-10-04T23:20:49.017Z,97441.25
2022-10-04T23:23:21.217Z,97450.66
2022-10-04T23:25:48.027Z,97445.38
2022-10-04T23:28:15.475Z,97450.03
2022-10-04T23:30:42.246Z,97446.38
2022-10-04T23:33:14.585Z,97448.47
2022-10-04T23:35:41.194Z,97452.97
2022-10-04T23:38:09.463Z,97452.63
2022-10-04T23:40:35.827Z,97458.19
2022-10-04T23:43:04.496Z,97453.91
2022-10-04T23:45:30.962Z,97456.00
2022-10-04T23:48:01.656Z,97454.94
2022-10-04T23:50:34.661Z,97445.22
2022-10-04T23:53:06.332Z,97443.94
2022-10-04T23:55:34.406Z,97456.25
2022-10-04T23:58:01.028Z,97453.09
